Nearby METAR Reports

 

KISM - Kissimmee/Orland, Florida, USA
Distance from station: NW 19mi, 31km
Updated: 12/11/2018 5:56pm
Clear
Clear
 Wind from NW
Wind: NW 5 mph , 7 km/h
Temperature: 50°F , 10°C
Wind Chill: 48°F , 9°C
Dew Point: 43°F , 6°C
Humidity: 76%
Barometer: 30.29 inHg , 1025.7 hPa
Clouds: Clear
Visibility: 10 miles , 16 km
2018/12/11 22:56 KISM 112256Z 31004KT 10SM CLR 10/06 A3029 RMK AO2 SLP260 T01000056 PNO $
KMCO - Orlando, Florida, USA
Distance from station: NNW 23mi, 37km
Updated: 12/11/2018 5:53pm
Clear
Clear
 Wind from N
Wind: N 7 mph , 11 km/h
Temperature: 52°F , 11°C
Dew Point: 39°F , 4°C
Humidity: 62%
Barometer: 30.28 inHg , 1025.4 hPa
Clouds: Clear
Visibility: 10 miles , 16 km
2018/12/11 22:53 KMCO 112253Z 36006KT 10SM CLR 11/04 A3028 RMK AO2 SLP253 T01060044
 
KORL - Orlando, Florida, USA
Distance from station: NNW 32mi, 51km
Updated: 12/11/2018 5:53pm
Clear
Clear
 Wind from N
Wind: N 3 mph , 6 km/h
Temperature: 54°F , 12°C
Dew Point: 39°F , 4°C
Humidity: 58%
Barometer: 30.28 inHg , 1025.4 hPa
Clouds: Clear
Visibility: 10 miles , 16 km
2018/12/11 22:53 KORL 112253Z 35003KT 10SM CLR 12/04 A3028 RMK AO2 SLP257 T01170039
KMLB - Melbourne, Florida, USA
Distance from station: E 32mi, 52km
Updated: 12/11/2018 5:53pm
Partly cloudy
Partly cloudy
 Wind from NNW
Wind: NNW 6 mph , 9 km/h
Temperature: 50°F , 10°C
Wind Chill: 48°F , 9°C
Dew Point: 39°F , 4°C
Humidity: 67%
Barometer: 30.27 inHg , 1025.1 hPa
Clouds: Partly cloudy
Visibility: 10 miles , 16 km
Cloud details: Partly cloudy 3000 ft
2018/12/11 22:53 KMLB 112253Z 33005KT 10SM SCT030 10/04 A3027 RMK AO2 SLP249 T01000044
 
KGIF - Winter Haven, Florida, USA
Distance from station: W 35mi, 56km
Updated: 12/11/2018 5:53pm
Clear
Clear
 Wind from NNE
Wind: NNE 6 mph , 9 km/h
Temperature: 52°F , 11°C
Dew Point: 39°F , 4°C
Humidity: 62%
Barometer: 30.28 inHg , 1025.4 hPa
Clouds: Clear
Visibility: 10 miles , 16 km
2018/12/11 22:53 KGIF 112253Z AUTO 02005KT 10SM CLR 11/04 A3028 RMK AO2 SLP255 T01110044
KTIX - Titusville, Florida, USA
Distance from station: NE 35mi, 57km
Updated: 12/11/2018 5:47pm
Clear
Clear
 Wind from N
Wind: N 6 mph , 9 km/h
Temperature: 52°F , 11°C
Dew Point: 43°F , 6°C
Humidity: 72%
Barometer: 30.27 inHg , 1025.1 hPa
Clouds: Clear
Visibility: 7 miles , 11 km
2018/12/11 22:47 KTIX 112247Z 01005KT 7SM CLR 11/06 A3027
 
KCOF - Patrick Afb/Coco, Florida, USA
Distance from station: ENE 36mi, 58km
Updated: 12/11/2018 5:56pm
Clear
Clear
 Wind from N
Wind: N 8 mph , 13 km/h
Temperature: 52°F , 11°C
Dew Point: 43°F , 6°C
Humidity: 72%
Barometer: 30.27 inHg , 1025.1 hPa
Clouds: Clear
Visibility: 10 miles , 16 km
2018/12/11 22:56 KCOF 112256Z AUTO 01007KT 10SM CLR 11/06 A3027 RMK AO2 SLP255 T01120059 $
KBOW - Bartow Municipal, Florida, USA
Distance from station: WSW 38mi, 61km
Updated: 12/11/2018 6:15pm
Clear
Clear
 Wind from N
Wind: N 3 mph , 6 km/h
Temperature: 52°F , 11°C
Dew Point: 39°F , 4°C
Humidity: 62%
Barometer: 30.28 inHg , 1025.4 hPa
Clouds: Clear
Visibility: 10 miles , 16 km
2018/12/11 23:15 KBOW 112315Z AUTO 01003KT 10SM CLR 11/04 A3028 RMK AO2
 
KXMR - Cape Canaveral, Florida, USA
Distance from station: NE 44mi, 72km
Updated: 12/11/2018 5:56pm
Clear
Clear
 Wind from NNW
Wind: NNW 7 mph , 11 km/h
Temperature: 52°F , 11°C
Dew Point: 39°F , 4°C
Humidity: 62%
Barometer: 30.26 inHg , 1024.7 hPa
Clouds: Clear
Visibility: 10 miles , 16 km
2018/12/11 22:56 KXMR 112256Z AUTO 33006KT 10SM CLR 11/04 A3026 RMK AO2 SLP250 T01100040 $
KTTS - Nasa Shuttle Fcl, Florida, USA
Distance from station: NE 45mi, 72km
Updated: 12/11/2018 5:56pm
Clear
Clear
 Wind from NNW
Wind: NNW 6 mph , 9 km/h
Temperature: 48°F , 9°C
Wind Chill: 45°F , 7°C
Dew Point: 39°F , 4°C
Humidity: 71%
Barometer: 30.26 inHg , 1024.7 hPa
Clouds: Clear
Visibility: 10 miles , 16 km
2018/12/11 22:56 KTTS 112256Z AUTO 33005KT 10SM CLR 09/04 A3026 RMK AO2 SLP251 T00860042 $
 
KSFB - Sanford/Orlando, Florida, USA
Distance from station: N 45mi, 73km
Updated: 12/11/2018 5:53pm
Clear
Clear
 Wind from WNW
Wind: WNW 3 mph , 6 km/h
Temperature: 50°F , 10°C
Dew Point: 41°F , 5°C
Humidity: 71%
Barometer: 30.28 inHg , 1025.4 hPa
Clouds: Clear
Visibility: 10 miles , 16 km
2018/12/11 22:53 KSFB 112253Z 29003KT 10SM CLR 10/05 A3028 RMK AO2 SLP252 T01000050
KLAL - Lakeland Regiona, Florida, USA
Distance from station: WSW 52mi, 84km
Updated: 12/11/2018 5:50pm
Clear
Clear
 Wind from NNW
Wind: NNW 5 mph , 7 km/h
Temperature: 54°F , 12°C
Dew Point: 39°F , 4°C
Humidity: 58%
Barometer: 30.28 inHg , 1025.4 hPa
Clouds: Clear
Visibility: 10 miles , 16 km
2018/12/11 22:50 KLAL 112250Z 34004KT 10SM SKC 12/04 A3028
 
KVRB - Vero Beach, Florida, USA
Distance from station: SE 57mi, 91km
Updated: 12/11/2018 5:53pm
Partly cloudy
Partly cloudy
 Wind from NNW
Wind: NNW 7 mph , 11 km/h
Temperature: 52°F , 11°C
Dew Point: 41°F , 5°C
Humidity: 67%
Barometer: 30.27 inHg , 1025.1 hPa
Clouds: Partly cloudy
Visibility: 10 miles , 16 km
Cloud details: Partly cloudy 3000 ft
2018/12/11 22:53 KVRB 112253Z 34006KT 10SM SCT030 11/05 A3027 RMK AO2 SLP249 T01060050
KZPH - Zephyrhills, Florida, USA
Distance from station: W 60mi, 96km
Updated: 12/11/2018 6:35pm
Clear
Clear
 Wind from calm
Wind: Calm
Temperature: 48°F , 9°C
Dew Point: 43°F , 6°C
Humidity: 82%
Barometer: 30.29 inHg , 1025.7 hPa
Clouds: Clear
Visibility: 10 miles , 16 km
2018/12/11 23:35 KZPH 112335Z AUTO 00000KT 10SM CLR 09/06 A3029 RMK AO2 T00860056
 
KPCM - Plant City Muni, Florida, USA
Distance from station: W 61mi, 98km
Updated: 12/11/2018 6:15pm
Clear
Clear
 Wind from calm
Wind: Calm
Temperature: 52°F , 11°C
Dew Point: 43°F , 6°C
Humidity: 72%
Barometer: 30.30 inHg , 1026.1 hPa
Clouds: Clear
Visibility: 10 miles , 16 km
2018/12/11 23:15 KPCM 112315Z AUTO 00000KT 10SM CLR 11/06 A3030 RMK AO2
KLEE - Leesburg, Florida, USA
Distance from station: NW 62mi, 100km
Updated: 12/11/2018 5:53pm
Clear
Clear
 Wind from NW
Wind: NW 3 mph , 6 km/h
Temperature: 50°F , 10°C
Dew Point: 39°F , 4°C
Humidity: 67%
Barometer: 30.29 inHg , 1025.7 hPa
Clouds: Clear
Visibility: 10 miles , 16 km
2018/12/11 22:53 KLEE 112253Z 32003KT 10SM CLR 10/04 A3029 RMK AO2 SLP255 T01000039
 
KOBE - Okeechobee Cty, Florida, USA
Distance from station: SSE 62mi, 100km
Updated: 12/11/2018 6:15pm
Clear
Clear
 Wind from N
Wind: N 5 mph , 7 km/h
Temperature: 50°F , 10°C
Wind Chill: 48°F , 9°C
Dew Point: 39°F , 4°C
Humidity: 67%
Barometer: 30.27 inHg , 1025.1 hPa
Clouds: Clear
Visibility: 10 miles , 16 km
2018/12/11 23:15 KOBE 112315Z AUTO 35004KT 10SM CLR 10/04 A3027 RMK AO2
KFPR - Fort Pierce, Florida, USA
Distance from station: SE 65mi, 104km
Updated: 12/11/2018 5:53pm
Clear
Clear
 Wind from N
Wind: N 6 mph , 9 km/h
Temperature: 52°F , 11°C
Dew Point: 41°F , 5°C
Humidity: 67%
Barometer: 30.26 inHg , 1024.7 hPa
Clouds: Clear
Visibility: 10 miles , 16 km
2018/12/11 22:53 KFPR 112253Z 01005KT 10SM CLR 11/05 A3026 RMK AO2 SLP248 T01060050
 
KDED - Deland, Florida, USA
Distance from station: N 66mi, 106km
Updated: 12/11/2018 6:15pm
Clear
Clear
 Wind from WNW
Wind: WNW 3 mph , 6 km/h
Temperature: 48°F , 9°C
Dew Point: 41°F , 5°C
Humidity: 76%
Barometer: 30.28 inHg , 1025.4 hPa
Clouds: Clear
Visibility: 10 miles , 16 km
2018/12/11 23:15 KDED 112315Z AUTO 29003KT 10SM CLR 09/05 A3028 RMK AO2
KEVB - New Smyrna Beach, Florida, USA
Distance from station: NNE 66mi, 106km
Updated: 12/11/2018 5:47pm
Clear
Clear
 Wind from NW
Wind: NW 6 mph , 9 km/h
Temperature: 48°F , 9°C
Wind Chill: 45°F , 7°C
Dew Point: 39°F , 4°C
Humidity: 71%
Barometer: 30.28 inHg , 1025.4 hPa
Clouds: Clear
Visibility: 10 miles , 16 km
2018/12/11 22:47 KEVB 112247Z 31005KT 10SM CLR 09/04 A3028